Huddleston, Arkansas
Current Conditions -  °F | °C
As of 6:53 PM on Friday 28 Nov 2014 (Local Time) from KMWT Reporting Station
Clear Clear  
Wind Chill: 55°   Ceiling: Unl
Heat Index: 55°   Visibility: 10mi
Dew Point: 40°   Wind: 5mph
Humidity: 57%   Direction: NA
Pressure: 30.03"   Gusts: NA
Location:  34.6364°N, 93.829°W
Report Text: KMWT 290053Z AUTO VRB04KT 10SM CLR 13/04 A3003 RMK AO2 SLP173 T01280044
Loading
Personal Weather Stations






























Interactive Weather Map New forecast layout! Learn more

10-Day Weather Forecast

Advertisements
Track Severe Weather on mobile